createdAt,value
2018-04-26T00:00:34.941Z,87.60
2018-04-26T00:01:35.160Z,88.51
2018-04-26T00:02:35.364Z,88.18
2018-04-26T00:03:35.579Z,88.13
2018-04-26T00:04:35.794Z,88.79
2018-04-26T00:05:36.001Z,88.32
2018-04-26T00:06:36.216Z,88.79
2018-04-26T00:07:36.430Z,88.70
2018-04-26T00:08:36.638Z,89.08
2018-04-26T00:09:36.855Z,89.37
2018-04-26T00:10:37.070Z,88.60
2018-04-26T00:11:37.270Z,89.27
2018-04-26T00:12:37.493Z,89.27
2018-04-26T00:13:39.651Z,88.60
2018-04-26T00:14:37.865Z,88.42
2018-04-26T00:15:38.073Z,88.70
2018-04-26T00:16:38.284Z,88.75
2018-04-26T00:17:38.518Z,88.79
2018-04-26T00:18:38.727Z,88.79
2018-04-26T00:19:38.944Z,89.08
2018-04-26T00:20:39.150Z,88.51
2018-04-26T00:21:39.370Z,88.23
2018-04-26T00:22:39.612Z,88.23
2018-04-26T00:23:39.789Z,88.04
2018-04-26T00:24:40.005Z,88.99
2018-04-26T00:25:40.220Z,88.89
2018-04-26T00:26:40.429Z,89.08
2018-04-26T00:27:40.643Z,89.08
2018-04-26T00:28:40.857Z,89.08
2018-04-26T00:29:42.656Z,88.79
2018-04-26T00:30:41.239Z,89.18
2018-04-26T00:31:41.443Z,89.56
2018-04-26T00:32:41.652Z,89.75
2018-04-26T00:33:41.860Z,89.37
2018-04-26T00:34:42.073Z,89.56
2018-04-26T00:35:42.282Z,89.37
2018-04-26T00:36:42.498Z,89.75
2018-04-26T00:37:42.704Z,90.03
2018-04-26T00:38:44.650Z,90.42
2018-04-26T00:39:43.121Z,90.51
2018-04-26T00:40:43.322Z,90.75
2018-04-26T00:41:43.533Z,91.46
2018-04-26T00:42:43.764Z,90.94
2018-04-26T00:43:43.954Z,91.27
2018-04-26T00:44:44.177Z,91.37
2018-04-26T00:45:44.390Z,90.80
2018-04-26T00:46:44.591Z,90.75
2018-04-26T00:47:44.798Z,90.75
2018-04-26T00:48:45.018Z,90.61
2018-04-26T00:49:45.265Z,90.37
2018-04-26T00:50:45.441Z,90.66
2018-04-26T00:51:45.657Z,90.84
2018-04-26T00:52:45.860Z,91.22
2018-04-26T00:53:46.066Z,91.99
2018-04-26T00:54:46.280Z,91.70
2018-04-26T00:55:46.487Z,91.22
2018-04-26T00:56:46.692Z,91.51
2018-04-26T00:57:46.913Z,91.61
2018-04-26T00:58:47.123Z,91.89
2018-04-26T00:59:47.341Z,91.61
2018-04-26T01:00:47.551Z,91.61
2018-04-26T01:01:47.760Z,92.18
2018-04-26T01:02:47.976Z,91.99
2018-04-26T01:03:48.182Z,92.56
2018-04-26T01:04:48.391Z,91.80
2018-04-26T01:05:48.610Z,92.18
2018-04-26T01:06:48.818Z,92.36
2018-04-26T01:07:49.038Z,91.80
2018-04-26T01:08:49.254Z,92.08
2018-04-26T01:09:49.460Z,91.42
2018-04-26T01:10:49.704Z,91.03
2018-04-26T01:11:49.917Z,91.22
2018-04-26T01:12:50.116Z,90.47
2018-04-26T01:13:50.330Z,90.08
2018-04-26T01:14:52.148Z,90.14
2018-04-26T01:15:50.737Z,90.37
2018-04-26T01:16:50.940Z,89.70
2018-04-26T01:17:51.158Z,89.61
2018-04-26T01:18:51.367Z,89.56
2018-04-26T01:19:51.577Z,89.47
2018-04-26T01:20:51.799Z,89.28
2018-04-26T01:21:51.999Z,89.18
2018-04-26T01:22:52.220Z,89.47
2018-04-26T01:23:52.420Z,89.28
2018-04-26T01:24:52.634Z,89.28
2018-04-26T01:25:52.849Z,89.85
2018-04-26T01:26:53.077Z,90.33
2018-04-26T01:27:53.277Z,90.70
2018-04-26T01:28:53.501Z,91.28
2018-04-26T01:29:53.710Z,91.94
2018-04-26T01:30:53.914Z,91.94
2018-04-26T01:31:54.126Z,91.66
2018-04-26T01:32:54.354Z,91.94
2018-04-26T01:33:54.568Z,91.56
2018-04-26T01:34:57.667Z,90.99
2018-04-26T01:35:54.993Z,90.75
2018-04-26T01:36:58.161Z,89.85
2018-04-26T01:37:55.363Z,89.00
2018-04-26T01:38:55.568Z,88.42
2018-04-26T01:39:55.788Z,88.61
2018-04-26T01:40:55.996Z,88.23
2018-04-26T01:41:56.213Z,87.95
2018-04-26T01:42:58.151Z,86.33
2018-04-26T01:43:58.157Z,86.14
2018-04-26T01:44:56.742Z,86.24
2018-04-26T01:45:58.649Z,85.28
2018-04-26T01:46:57.114Z,85.00
2018-04-26T01:47:57.323Z,84.52
2018-04-26T01:48:57.537Z,84.62
2018-04-26T01:49:57.761Z,84.14
2018-04-26T01:50:59.652Z,83.95
2018-04-26T01:51:58.109Z,83.39
2018-04-26T01:52:58.334Z,83.39
2018-04-26T01:53:59.541Z,82.91
2018-04-26T01:55:02.652Z,82.81
2018-04-26T01:55:58.972Z,83.39
2018-04-26T01:56:59.176Z,83.39
2018-04-26T01:57:59.387Z,83.29
2018-04-26T01:59:02.155Z,83.19
2018-04-26T01:59:59.735Z,83.39
2018-04-26T02:00:59.950Z,83.00
2018-04-26T02:02:01.651Z,83.39
2018-04-26T02:03:00.349Z,83.19
2018-04-26T02:04:00.566Z,83.00
2018-04-26T02:05:00.775Z,83.39
2018-04-26T02:06:00.972Z,83.10
2018-04-26T02:07:05.150Z,83.39
2018-04-26T02:08:01.358Z,83.39
2018-04-26T02:09:01.570Z,83.19
2018-04-26T02:10:01.762Z,83.00
2018-04-26T02:11:01.981Z,82.34
2018-04-26T02:12:04.167Z,82.34
2018-04-26T02:13:02.395Z,82.15
2018-04-26T02:14:05.170Z,81.86
2018-04-26T02:15:02.768Z,81.67
2018-04-26T02:16:02.974Z,81.58
2018-04-26T02:17:03.197Z,81.77
2018-04-26T02:18:04.285Z,82.43
2018-04-26T02:19:03.628Z,79.86
2018-04-26T02:20:03.835Z,79.86
2018-04-26T02:21:04.046Z,79.77
2018-04-26T02:22:04.260Z,79.86
2018-04-26T02:23:04.459Z,79.39
2018-04-26T02:24:04.669Z,79.77
2018-04-26T02:25:04.912Z,79.30
2018-04-26T02:26:05.089Z,79.20
2018-04-26T02:27:05.299Z,79.68
2018-04-26T02:28:05.513Z,79.86
2018-04-26T02:29:05.714Z,79.68
2018-04-26T02:30:07.652Z,79.39
2018-04-26T02:31:06.107Z,80.05
2018-04-26T02:32:08.149Z,79.49
2018-04-26T02:33:06.486Z,79.30
2018-04-26T02:34:08.649Z,79.77
2018-04-26T02:35:06.862Z,79.58
2018-04-26T02:36:07.066Z,79.68
2018-04-26T02:37:07.283Z,79.96
2018-04-26T02:38:07.501Z,80.05
2018-04-26T02:39:07.708Z,80.15
2018-04-26T02:40:07.923Z,79.96
2018-04-26T02:41:08.122Z,80.34
2018-04-26T02:42:10.160Z,80.53
2018-04-26T02:43:08.494Z,80.44
2018-04-26T02:44:08.707Z,80.63
2018-04-26T02:45:08.908Z,80.72
2018-04-26T02:46:09.144Z,80.44
2018-04-26T02:47:09.246Z,80.15
2018-04-26T02:48:09.475Z,80.05
2018-04-26T02:49:09.706Z,80.05
2018-04-26T02:50:09.888Z,79.68
2018-04-26T02:51:10.126Z,79.77
2018-04-26T02:52:10.316Z,79.20
2018-04-26T02:53:10.519Z,79.58
2018-04-26T02:54:10.727Z,79.11
2018-04-26T02:55:10.934Z,78.82
2018-04-26T02:56:11.150Z,78.63
2018-04-26T02:57:11.344Z,78.63
2018-04-26T02:58:11.556Z,78.34
2018-04-26T02:59:11.796Z,78.16
2018-04-26T03:00:11.899Z,78.25
2018-04-26T03:01:13.654Z,78.63
2018-04-26T03:02:12.228Z,78.25
2018-04-26T03:03:12.457Z,77.77
2018-04-26T03:04:12.583Z,78.16
2018-04-26T03:05:14.675Z,78.34
2018-04-26T03:06:14.648Z,77.87
2018-04-26T03:07:15.163Z,77.58
2018-04-26T03:08:16.237Z,77.58
2018-04-26T03:09:13.491Z,77.87
2018-04-26T03:10:13.704Z,77.58
2018-04-26T03:11:13.919Z,77.11
2018-04-26T03:12:14.143Z,77.20
2018-04-26T03:13:16.152Z,77.20
2018-04-26T03:14:14.487Z,77.11
2018-04-26T03:15:16.659Z,77.58
2018-04-26T03:16:14.871Z,77.49
2018-04-26T03:17:15.096Z,77.20
2018-04-26T03:18:15.325Z,77.20
2018-04-26T03:19:15.539Z,76.92
2018-04-26T03:20:15.753Z,77.11
2018-04-26T03:21:17.659Z,77.30
2018-04-26T03:22:16.109Z,76.82
2018-04-26T03:23:18.163Z,77.01
2018-04-26T03:24:16.491Z,76.82
2018-04-26T03:25:18.671Z,76.92
2018-04-26T03:26:20.649Z,77.01
2018-04-26T03:27:17.109Z,77.11
2018-04-26T03:28:17.327Z,76.54
2018-04-26T03:29:19.166Z,76.44
2018-04-26T03:30:17.762Z,77.11
2018-04-26T03:31:17.976Z,77.11
2018-04-26T03:32:18.247Z,77.39
2018-04-26T03:33:18.381Z,77.77
2018-04-26T03:34:18.589Z,77.68
2018-04-26T03:35:20.648Z,77.87
2018-04-26T03:36:19.002Z,77.58
2018-04-26T03:37:21.178Z,78.16
2018-04-26T03:38:19.362Z,78.30
2018-04-26T03:39:19.579Z,78.50
2018-04-26T03:40:21.656Z,78.30
2018-04-26T03:41:21.653Z,78.21
2018-04-26T03:42:23.658Z,78.30
2018-04-26T03:43:20.237Z,78.30
2018-04-26T03:44:20.446Z,78.21
2018-04-26T03:45:20.657Z,78.69
2018-04-26T03:46:22.654Z,77.92
2018-04-26T03:47:20.995Z,78.30
2018-04-26T03:48:21.198Z,78.11
2018-04-26T03:49:23.152Z,78.69
2018-04-26T03:50:21.607Z,78.11
2018-04-26T03:51:23.653Z,78.02
2018-04-26T03:52:21.984Z,78.59
2018-04-26T03:53:22.191Z,78.78
2018-04-26T03:54:22.455Z,78.11
2018-04-26T03:55:22.622Z,77.92
2018-04-26T03:56:22.840Z,78.21
2018-04-26T03:57:24.661Z,78.59
2018-04-26T03:58:23.255Z,78.69
2018-04-26T03:59:23.450Z,78.69
2018-04-26T04:00:23.680Z,78.78
2018-04-26T04:01:23.873Z,78.88
2018-04-26T04:02:24.085Z,78.11
2018-04-26T04:03:24.308Z,78.78
2018-04-26T04:04:24.432Z,78.50
2018-04-26T04:05:24.630Z,78.69
2018-04-26T04:06:26.662Z,78.59
2018-04-26T04:07:26.652Z,78.59
2018-04-26T04:08:25.115Z,78.30
2018-04-26T04:09:25.343Z,78.88
2018-04-26T04:10:25.538Z,78.78
2018-04-26T04:11:25.741Z,78.40
2018-04-26T04:12:25.948Z,78.78
2018-04-26T04:13:27.654Z,78.59
2018-04-26T04:14:26.369Z,78.78
2018-04-26T04:15:27.115Z,78.69
2018-04-26T04:16:26.715Z,78.78
2018-04-26T04:17:28.655Z,78.97
2018-04-26T04:18:30.654Z,78.97
2018-04-26T04:19:27.229Z,79.35
2018-04-26T04:20:27.439Z,78.78
2018-04-26T04:21:27.648Z,79.16
2018-04-26T04:22:29.659Z,78.97
2018-04-26T04:23:31.653Z,79.25
2018-04-26T04:24:29.649Z,79.16
2018-04-26T04:25:30.153Z,79.63
2018-04-26T04:26:28.377Z,79.83
2018-04-26T04:27:28.578Z,79.16
2018-04-26T04:28:32.649Z,78.88
2018-04-26T04:29:28.987Z,78.88
2018-04-26T04:30:29.190Z,79.25
2018-04-26T04:31:29.410Z,79.25
2018-04-26T04:32:29.612Z,79.73
2018-04-26T04:33:29.820Z,79.83
2018-04-26T04:34:30.040Z,79.73
2018-04-26T04:35:30.231Z,79.44
2018-04-26T04:36:30.442Z,79.83
2018-04-26T04:37:30.664Z,79.54
2018-04-26T04:38:30.867Z,79.83
2018-04-26T04:39:31.085Z,79.63
2018-04-26T04:40:34.148Z,79.83
2018-04-26T04:41:33.165Z,79.44
2018-04-26T04:42:31.613Z,79.35
2018-04-26T04:43:31.818Z,79.54
2018-04-26T04:44:32.019Z,79.54
2018-04-26T04:45:32.220Z,78.78
2018-04-26T04:46:32.439Z,79.83
2018-04-26T04:47:32.660Z,79.63
2018-04-26T04:48:32.865Z,79.16
2018-04-26T04:49:33.078Z,79.06
2018-04-26T04:50:33.299Z,79.06
2018-04-26T04:51:33.513Z,79.83
2018-04-26T04:52:33.727Z,79.63
2018-04-26T04:53:35.650Z,80.11
2018-04-26T04:54:35.653Z,80.30
2018-04-26T04:55:36.153Z,80.58
2018-04-26T04:56:36.157Z,80.30
2018-04-26T04:57:36.159Z,80.21
2018-04-26T04:58:34.627Z,80.49
2018-04-26T04:59:34.842Z,80.05
2018-04-26T05:00:35.057Z,80.30
2018-04-26T05:01:35.261Z,80.24
2018-04-26T05:02:35.475Z,79.77
2018-04-26T05:03:35.696Z,79.30
2018-04-26T05:04:35.902Z,79.58
2018-04-26T05:05:36.114Z,79.20
2018-04-26T05:06:38.182Z,79.11
2018-04-26T05:07:36.485Z,79.39
2018-04-26T05:08:36.698Z,78.82
2018-04-26T05:09:36.901Z,79.58
2018-04-26T05:10:38.652Z,79.68
2018-04-26T05:11:37.223Z,79.68
2018-04-26T05:12:41.161Z,79.49
2018-04-26T05:13:38.632Z,78.82
2018-04-26T05:14:37.865Z,78.34
2018-04-26T05:15:39.649Z,78.19
2018-04-26T05:16:38.116Z,79.01
2018-04-26T05:17:40.193Z,79.24
2018-04-26T05:18:38.515Z,79.62
2018-04-26T05:19:38.734Z,79.49
2018-04-26T05:20:38.938Z,79.96
2018-04-26T05:21:39.152Z,79.58
2018-04-26T05:22:39.367Z,79.58
2018-04-26T05:23:39.574Z,79.33
2018-04-26T05:24:39.784Z,78.63
2018-04-26T05:25:41.688Z,78.38
2018-04-26T05:26:40.116Z,78.38
2018-04-26T05:27:40.329Z,78.19
2018-04-26T05:28:40.530Z,78.29
2018-04-26T05:29:40.744Z,77.91
2018-04-26T05:30:56.656Z,76.90
2018-04-26T05:31:42.655Z,76.14
2018-04-26T05:32:43.159Z,75.32
2018-04-26T05:33:41.444Z,73.65
2018-04-26T05:34:41.571Z,71.83
2018-04-26T05:35:41.810Z,70.34
2018-04-26T05:36:42.016Z,69.10
2018-04-26T05:37:42.122Z,67.90
2018-04-26T05:38:42.326Z,67.61
2018-04-26T05:39:42.549Z,66.47
2018-04-26T05:40:44.653Z,66.09
2018-04-26T05:41:44.656Z,65.42
2018-04-26T05:42:43.133Z,65.89
2018-04-26T05:43:43.325Z,64.97
2018-04-26T05:44:43.525Z,64.65
2018-04-26T05:45:43.741Z,65.70
2018-04-26T05:46:43.948Z,64.97
2018-04-26T05:47:45.655Z,63.64
2018-04-26T05:48:44.369Z,62.91
2018-04-26T05:49:44.577Z,62.52
2018-04-26T05:50:44.787Z,62.18
2018-04-26T05:51:46.655Z,60.68
2018-04-26T05:52:45.104Z,60.49
2018-04-26T05:53:47.155Z,60.30
2018-04-26T05:54:45.491Z,59.66
2018-04-26T05:55:45.745Z,59.24
2018-04-26T05:56:46.162Z,59.24
2018-04-26T05:57:46.457Z,58.80
2018-04-26T05:58:46.566Z,58.12
2018-04-26T05:59:47.125Z,58.34
2018-04-26T06:00:50.320Z,57.68
2018-04-26T06:01:47.324Z,57.46
2018-04-26T06:02:46.938Z,56.34
2018-04-26T06:03:47.288Z,56.40
2018-04-26T06:04:47.233Z,56.50
2018-04-26T06:05:49.152Z,58.58
2018-04-26T06:06:47.630Z,59.02
2018-04-26T06:07:48.028Z,61.47
2018-04-26T06:08:47.995Z,62.88
2018-04-26T06:09:50.186Z,63.45
2018-04-26T06:10:48.538Z,64.18
2018-04-26T06:11:48.532Z,65.33
2018-04-26T06:12:48.745Z,65.17
2018-04-26T06:13:48.961Z,64.78
2018-04-26T06:14:49.157Z,63.20
2018-04-26T06:15:49.371Z,62.97
2018-04-26T06:16:49.638Z,64.75
2018-04-26T06:17:49.797Z,65.61
2018-04-26T06:18:49.998Z,66.91
2018-04-26T06:19:50.210Z,67.39
2018-04-26T06:20:50.409Z,67.68
2018-04-26T06:21:50.622Z,68.34
2018-04-26T06:22:50.840Z,68.44
2018-04-26T06:23:52.666Z,68.82
2018-04-26T06:24:51.238Z,67.68
2018-04-26T06:25:51.449Z,68.05
2018-04-26T06:26:51.664Z,68.24
2018-04-26T06:27:51.881Z,68.63
2018-04-26T06:28:52.082Z,69.29
2018-04-26T06:29:54.193Z,69.10
2018-04-26T06:30:52.525Z,69.29
2018-04-26T06:31:52.744Z,68.63
2018-04-26T06:32:52.970Z,66.53
2018-04-26T06:33:53.170Z,63.23
2018-04-26T06:34:53.381Z,62.55
2018-04-26T06:35:53.592Z,63.00
2018-04-26T06:36:53.881Z,64.40
2018-04-26T06:37:54.016Z,65.17
2018-04-26T06:38:54.232Z,66.22
2018-04-26T06:39:54.437Z,66.41
2018-04-26T06:40:54.652Z,65.70
2018-04-26T06:41:54.889Z,66.88
2018-04-26T06:42:55.070Z,66.69
2018-04-26T06:43:55.279Z,66.50
2018-04-26T06:44:55.495Z,66.78
2018-04-26T06:45:55.709Z,66.31
2018-04-26T06:46:55.924Z,66.69
2018-04-26T06:47:56.156Z,66.60
2018-04-26T06:48:56.351Z,65.80
2018-04-26T06:49:58.162Z,67.23
2018-04-26T06:50:56.807Z,67.42
2018-04-26T06:51:56.972Z,66.85
2018-04-26T06:52:57.195Z,67.61
2018-04-26T06:53:57.401Z,68.09
2018-04-26T06:54:59.152Z,68.28
2018-04-26T06:55:57.744Z,68.38
2018-04-26T06:56:57.971Z,68.47
2018-04-26T06:57:58.168Z,68.57
2018-04-26T06:58:58.382Z,68.53
2018-04-26T06:59:58.624Z,69.33
2018-04-26T07:00:58.829Z,69.58
2018-04-26T07:01:59.038Z,69.04
2018-04-26T07:02:59.245Z,69.71
2018-04-26T07:03:59.459Z,69.10
2018-04-26T07:05:01.153Z,69.48
2018-04-26T07:05:59.895Z,69.96
2018-04-26T07:07:00.089Z,69.77
2018-04-26T07:08:00.308Z,69.96
2018-04-26T07:09:00.528Z,70.34
2018-04-26T07:10:00.724Z,70.06
2018-04-26T07:11:00.945Z,70.34
2018-04-26T07:12:01.202Z,69.87
2018-04-26T07:13:03.162Z,69.48
2018-04-26T07:14:01.504Z,69.20
2018-04-26T07:15:01.706Z,68.66
2018-04-26T07:16:01.915Z,66.63
2018-04-26T07:17:02.121Z,63.45
2018-04-26T07:18:02.337Z,62.04
2018-04-26T07:19:02.561Z,59.72
2018-04-26T07:20:02.760Z,56.39
2018-04-26T07:21:02.968Z,56.77
2018-04-26T07:22:03.179Z,57.32
2018-04-26T07:23:03.387Z,57.65
2018-04-26T07:24:03.605Z,59.94
2018-04-26T07:25:03.809Z,60.55
2018-04-26T07:26:04.016Z,58.28
2018-04-26T07:27:04.234Z,56.84
2018-04-26T07:28:04.445Z,55.65
2018-04-26T07:29:04.657Z,54.22
2018-04-26T07:30:04.880Z,53.96
2018-04-26T07:31:05.089Z,54.32
2018-04-26T07:32:05.310Z,54.32
2018-04-26T07:33:05.538Z,53.62
2018-04-26T07:34:05.754Z,52.50
2018-04-26T07:35:06.010Z,52.71
2018-04-26T07:36:06.086Z,53.45
2018-04-26T07:37:07.781Z,54.79
2018-04-26T07:38:06.512Z,53.55
2018-04-26T07:39:10.666Z,52.97
2018-04-26T07:40:08.661Z,53.37
2018-04-26T07:41:07.129Z,56.88
2018-04-26T07:42:07.350Z,59.08
2018-04-26T07:43:07.558Z,60.13
2018-04-26T07:44:07.771Z,60.13
2018-04-26T07:45:07.989Z,59.72
2018-04-26T07:46:10.172Z,60.93
2018-04-26T07:47:08.367Z,61.79
2018-04-26T07:48:08.617Z,61.89
2018-04-26T07:49:08.810Z,61.60
2018-04-26T07:50:09.023Z,61.98
2018-04-26T07:51:09.268Z,62.11
2018-04-26T07:52:09.463Z,61.89
2018-04-26T07:53:09.726Z,61.63
2018-04-26T07:54:09.893Z,60.42
2018-04-26T07:55:10.114Z,59.47
2018-04-26T07:56:10.322Z,59.72
2018-04-26T07:57:10.552Z,59.40
2018-04-26T07:58:10.762Z,56.49
2018-04-26T07:59:11.018Z,55.08
2018-04-26T08:00:11.210Z,54.28
2018-04-26T08:01:11.420Z,52.74
2018-04-26T08:02:11.624Z,52.85
2018-04-26T08:03:11.850Z,54.10
2018-04-26T08:04:12.057Z,53.50
2018-04-26T08:05:12.281Z,52.62
2018-04-26T08:06:12.499Z,51.59
2018-04-26T08:07:13.793Z,49.21
2018-04-26T08:08:15.681Z,50.08
2018-04-26T08:09:14.666Z,50.43
2018-04-26T08:10:13.272Z,50.68
2018-04-26T08:11:14.492Z,49.74
2018-04-26T08:12:13.696Z,48.13
2018-04-26T08:13:13.930Z,46.53
2018-04-26T08:14:14.151Z,45.08
2018-04-26T08:15:14.365Z,45.71
2018-04-26T08:16:18.160Z,47.51
2018-04-26T08:17:16.660Z,47.44
2018-04-26T08:18:14.873Z,46.86
2018-04-26T08:19:15.106Z,45.71
2018-04-26T08:20:18.159Z,47.01
2018-04-26T08:21:19.171Z,48.85
2018-04-26T08:22:15.682Z,52.03
2018-04-26T08:23:15.824Z,55.07
2018-04-26T08:24:16.024Z,55.35
2018-04-26T08:25:16.250Z,56.43
2018-04-26T08:26:16.468Z,55.76
2018-04-26T08:27:16.692Z,55.12
2018-04-26T08:28:19.663Z,53.36
2018-04-26T08:29:17.124Z,51.40
2018-04-26T08:30:17.350Z,49.79
2018-04-26T08:31:17.570Z,49.79
2018-04-26T08:32:17.791Z,49.67
2018-04-26T08:33:18.054Z,49.60
2018-04-26T08:34:21.171Z,48.57
2018-04-26T08:35:19.396Z,46.79
2018-04-26T08:36:18.620Z,46.33
2018-04-26T08:37:23.073Z,45.28
2018-04-26T08:38:20.666Z,44.89
2018-04-26T08:39:20.281Z,44.22
2018-04-26T08:40:19.429Z,43.74
2018-04-26T08:41:22.173Z,44.94
2018-04-26T08:42:21.641Z,46.48
2018-04-26T08:43:20.001Z,45.61
2018-04-26T08:44:23.184Z,45.42
2018-04-26T08:45:21.377Z,44.65
2018-04-26T08:46:20.616Z,43.98
2018-04-26T08:47:22.704Z,45.86
2018-04-26T08:48:22.707Z,46.72
2018-04-26T08:49:22.306Z,47.41
2018-04-26T08:50:23.166Z,47.22
2018-04-26T08:51:25.175Z,47.03
2018-04-26T08:52:23.763Z,46.96
2018-04-26T08:53:23.667Z,45.64
2018-04-26T08:54:23.667Z,45.64
2018-04-26T08:55:24.179Z,47.10
2018-04-26T08:56:23.422Z,46.48
2018-04-26T08:57:24.164Z,44.65
2018-04-26T08:58:24.664Z,44.46
2018-04-26T08:59:24.016Z,45.83
2018-04-26T09:00:25.162Z,44.20
2018-04-26T09:01:25.189Z,44.70
2018-04-26T09:02:25.193Z,43.26
2018-04-26T09:03:23.666Z,43.08
2018-04-26T09:04:39.671Z,43.37
2018-04-26T09:05:24.125Z,42.89
2018-04-26T09:06:24.350Z,42.99
2018-04-26T09:07:26.181Z,41.93
2018-04-26T09:08:24.806Z,40.78
2018-04-26T09:09:26.670Z,41.66
2018-04-26T09:10:26.124Z,41.97
2018-04-26T09:11:27.181Z,40.07
2018-04-26T09:12:25.528Z,39.95
2018-04-26T09:13:29.668Z,40.03
2018-04-26T09:14:27.687Z,40.99
2018-04-26T09:15:32.744Z,40.80
2018-04-26T09:16:28.166Z,41.64
2018-04-26T09:17:27.519Z,42.91
2018-04-26T09:18:26.769Z,42.33
2018-04-26T09:19:28.675Z,42.97
2018-04-26T09:20:28.672Z,44.10
2018-04-26T09:21:31.163Z,43.48
2018-04-26T09:22:31.166Z,45.37
2018-04-26T09:23:34.172Z,46.70
2018-04-26T09:24:31.664Z,48.18
2018-04-26T09:25:31.665Z,50.07
2018-04-26T09:26:28.239Z,51.68
2018-04-26T09:27:30.165Z,53.08
2018-04-26T09:28:31.179Z,53.66
2018-04-26T09:29:32.188Z,52.78
2018-04-26T09:30:31.387Z,50.15
2018-04-26T09:31:28.983Z,49.48
2018-04-26T09:32:31.172Z,49.05
2018-04-26T09:33:29.391Z,47.63
2018-04-26T09:34:29.632Z,46.86
2018-04-26T09:35:33.670Z,45.66
2018-04-26T09:36:30.014Z,43.70
2018-04-26T09:37:32.174Z,44.68
2018-04-26T09:38:34.167Z,44.20
2018-04-26T09:39:30.541Z,44.82
2018-04-26T09:40:32.184Z,41.47
2018-04-26T09:41:32.672Z,41.20
2018-04-26T09:42:32.669Z,40.01
2018-04-26T09:43:31.131Z,41.83
2018-04-26T09:44:31.352Z,42.50
2018-04-26T09:45:31.585Z,42.68
2018-04-26T09:46:33.667Z,43.52
2018-04-26T09:47:33.694Z,44.17
2018-04-26T09:48:33.253Z,44.08
2018-04-26T09:49:34.169Z,45.50
2018-04-26T09:50:34.183Z,46.07
2018-04-26T09:51:32.784Z,45.50
2018-04-26T09:52:34.668Z,46.17
2018-04-26T09:53:33.139Z,47.87
2018-04-26T09:54:33.356Z,47.94
2018-04-26T09:55:33.694Z,49.07
2018-04-26T09:56:33.970Z,51.32
2018-04-26T09:57:34.008Z,53.75
2018-04-26T09:58:34.319Z,60.61
2018-04-26T09:59:34.449Z,65.55
2018-04-26T10:00:34.668Z,67.52
2018-04-26T10:01:34.908Z,68.48
2018-04-26T10:02:35.096Z,70.48
2018-04-26T10:03:35.321Z,70.10
2018-04-26T10:04:35.541Z,69.41
2018-04-26T10:05:35.779Z,67.72
2018-04-26T10:06:36.001Z,60.86
2018-04-26T10:07:36.201Z,59.04
2018-04-26T10:08:36.416Z,57.76
2018-04-26T10:09:40.172Z,59.58
2018-04-26T10:10:36.754Z,60.93
2018-04-26T10:11:38.672Z,62.33
2018-04-26T10:12:40.672Z,63.26
2018-04-26T10:13:37.260Z,64.47
2018-04-26T10:14:37.482Z,66.41
2018-04-26T10:15:37.701Z,70.29
2018-04-26T10:16:37.911Z,71.50
2018-04-26T10:17:38.137Z,73.37
2018-04-26T10:18:38.345Z,74.13
2018-04-26T10:19:38.657Z,74.04
2018-04-26T10:20:38.796Z,74.80
2018-04-26T10:21:39.020Z,74.71
2018-04-26T10:22:42.180Z,75.05
2018-04-26T10:23:39.465Z,75.62
2018-04-26T10:24:39.600Z,75.34
2018-04-26T10:25:39.824Z,75.47
2018-04-26T10:26:40.032Z,75.85
2018-04-26T10:27:40.251Z,74.32
2018-04-26T10:28:40.465Z,73.32
2018-04-26T10:29:40.676Z,73.60
2018-04-26T10:30:40.904Z,73.44
2018-04-26T10:31:41.121Z,74.15
2018-04-26T10:32:43.173Z,70.14
2018-04-26T10:33:41.502Z,69.66
2018-04-26T10:34:41.716Z,71.19
2018-04-26T10:35:41.920Z,71.76
2018-04-26T10:36:42.131Z,70.50
2018-04-26T10:37:42.367Z,69.12
2018-04-26T10:38:44.201Z,67.56
2018-04-26T10:39:42.781Z,66.96
2018-04-26T10:40:42.991Z,67.69
2018-04-26T10:41:43.255Z,67.59
2018-04-26T10:42:43.422Z,67.88
2018-04-26T10:43:43.660Z,69.27
2018-04-26T10:44:43.882Z,70.90
2018-04-26T10:45:44.114Z,70.65
2018-04-26T10:46:44.319Z,69.67
2018-04-26T10:47:46.174Z,69.13
2018-04-26T10:48:44.764Z,68.36
2018-04-26T10:49:46.682Z,67.43
2018-04-26T10:50:45.145Z,68.55
2018-04-26T10:51:45.361Z,66.89
2018-04-26T10:52:45.570Z,69.82
2018-04-26T10:53:45.779Z,71.25
2018-04-26T10:54:46.006Z,70.36
2018-04-26T10:55:49.174Z,72.58
2018-04-26T10:56:46.377Z,73.22
2018-04-26T10:57:46.583Z,72.36
2018-04-26T10:58:46.796Z,73.44
2018-04-26T10:59:47.062Z,73.35
2018-04-26T11:00:47.211Z,71.25
2018-04-26T11:01:47.423Z,71.92
2018-04-26T11:02:47.631Z,72.49
2018-04-26T11:03:47.848Z,73.63
2018-04-26T11:04:48.056Z,73.44
2018-04-26T11:05:48.276Z,73.35
2018-04-26T11:06:50.179Z,73.83
2018-04-26T11:07:48.634Z,73.29
2018-04-26T11:08:48.853Z,72.18
2018-04-26T11:09:49.087Z,71.70
2018-04-26T11:10:49.288Z,69.82
2018-04-26T11:11:49.491Z,66.86
2018-04-26T11:12:53.674Z,63.57
2018-04-26T11:13:49.904Z,61.24
2018-04-26T11:14:51.635Z,57.71
2018-04-26T11:15:50.233Z,55.34
2018-04-26T11:16:50.457Z,54.89
2018-04-26T11:17:52.179Z,55.01
2018-04-26T11:18:50.894Z,53.21
2018-04-26T11:19:51.113Z,50.68
2018-04-26T11:20:51.353Z,50.99
2018-04-26T11:21:51.577Z,52.83
2018-04-26T11:22:51.801Z,52.37
2018-04-26T11:23:53.030Z,52.20
2018-04-26T11:24:54.177Z,49.99
2018-04-26T11:25:52.387Z,50.95
2018-04-26T11:26:52.630Z,51.05
2018-04-26T11:27:52.855Z,49.70
2018-04-26T11:28:54.678Z,47.00
2018-04-26T11:29:53.276Z,47.24
2018-04-26T11:30:55.196Z,46.06
2018-04-26T11:31:56.176Z,46.15
2018-04-26T11:32:53.788Z,46.16
2018-04-26T11:33:53.987Z,47.80
2018-04-26T11:34:54.210Z,49.22
2018-04-26T11:35:56.179Z,52.81
2018-04-26T11:36:55.648Z,52.81
2018-04-26T11:37:55.889Z,50.03
2018-04-26T11:38:55.156Z,49.99
2018-04-26T11:39:57.186Z,49.63
2018-04-26T11:40:55.409Z,50.66
2018-04-26T11:41:55.633Z,52.58
2018-04-26T11:42:55.869Z,52.58
2018-04-26T11:43:57.707Z,52.08
2018-04-26T11:44:56.324Z,50.92
2018-04-26T11:45:56.556Z,50.43
2018-04-26T11:46:56.786Z,52.95
2018-04-26T11:47:58.706Z,51.23
2018-04-26T11:48:58.695Z,53.56
2018-04-26T11:50:03.205Z,53.11
2018-04-26T11:50:59.184Z,49.74
2018-04-26T11:51:58.660Z,53.03
2018-04-26T11:52:57.897Z,53.45
2018-04-26T11:54:00.685Z,50.20
2018-04-26T11:54:59.684Z,50.18
2018-04-26T11:56:00.180Z,50.85
2018-04-26T11:57:00.191Z,49.53
2018-04-26T11:58:00.185Z,49.33
2018-04-26T11:58:58.899Z,49.05
2018-04-26T11:59:59.159Z,50.05
2018-04-26T12:00:59.250Z,49.17
2018-04-26T12:02:01.068Z,48.76
2018-04-26T12:02:59.712Z,49.31
2018-04-26T12:04:02.686Z,51.59
2018-04-26T12:05:01.695Z,52.93
2018-04-26T12:06:02.187Z,54.08
2018-04-26T12:07:00.405Z,53.09
2018-04-26T12:08:00.616Z,54.34
2018-04-26T12:09:02.718Z,54.22
2018-04-26T12:10:01.052Z,52.59
2018-04-26T12:11:01.271Z,52.95
2018-04-26T12:12:01.485Z,56.08
2018-04-26T12:13:01.697Z,58.54
2018-04-26T12:14:03.689Z,63.10
2018-04-26T12:15:04.007Z,67.46
2018-04-26T12:16:03.027Z,67.81
2018-04-26T12:17:02.488Z,67.52
2018-04-26T12:18:02.700Z,69.02
2018-04-26T12:19:02.916Z,68.10
2018-04-26T12:20:03.130Z,66.74
2018-04-26T12:21:03.344Z,65.49
2018-04-26T12:22:03.609Z,59.36
2018-04-26T12:23:07.691Z,59.84
2018-04-26T12:24:03.971Z,57.03
2018-04-26T12:25:04.145Z,57.60
2018-04-26T12:26:04.345Z,57.12
2018-04-26T12:27:06.187Z,52.62
2018-04-26T12:28:04.774Z,53.07
2018-04-26T12:29:04.996Z,50.36
2018-04-26T12:30:05.215Z,50.52
2018-04-26T12:31:05.432Z,51.39
2018-04-26T12:32:05.669Z,52.47
2018-04-26T12:33:05.889Z,52.87
2018-04-26T12:34:06.111Z,51.56
2018-04-26T12:35:06.387Z,51.78
2018-04-26T12:36:06.440Z,51.40
2018-04-26T12:37:06.659Z,50.63
2018-04-26T12:38:06.906Z,48.16
2018-04-26T12:39:08.692Z,49.88
2018-04-26T12:40:07.155Z,47.71
2018-04-26T12:41:07.372Z,47.49
2018-04-26T12:42:09.266Z,48.47
2018-04-26T12:43:07.785Z,48.18
2018-04-26T12:44:08.012Z,45.88
2018-04-26T12:45:08.221Z,47.63
2018-04-26T12:46:08.453Z,46.86
2018-04-26T12:47:08.646Z,46.19
2018-04-26T12:48:10.876Z,45.42
2018-04-26T12:49:09.092Z,46.50
2018-04-26T12:50:09.309Z,44.96
2018-04-26T12:51:09.523Z,44.08
2018-04-26T12:52:11.687Z,44.44
2018-04-26T12:53:09.900Z,44.54
2018-04-26T12:54:10.118Z,46.65
2018-04-26T12:55:12.186Z,45.88